sensor_id;sensor_type;location;lat;lon;timestamp;P1;durP1;ratioP1;P2;durP2;ratioP2
31990;SDS011;18508;49.386;8.370;2023-12-20T00:00:17;10.63;;;5.60;;
31990;SDS011;18508;49.386;8.370;2023-12-20T00:02:46;13.82;;;6.15;;
31990;SDS011;18508;49.386;8.370;2023-12-20T00:05:14;11.93;;;5.50;;
31990;SDS011;18508;49.386;8.370;2023-12-20T00:07:43;11.85;;;6.22;;
31990;SDS011;18508;49.386;8.370;2023-12-20T00:10:13;9.48;;;5.88;;
31990;SDS011;18508;49.386;8.370;2023-12-20T00:12:41;12.52;;;5.68;;
31990;SDS011;18508;49.386;8.370;2023-12-20T00:15:10;10.55;;;5.65;;
31990;SDS011;18508;49.386;8.370;2023-12-20T00:17:38;10.82;;;6.20;;
31990;SDS011;18508;49.386;8.370;2023-12-20T00:20:07;9.75;;;5.80;;
31990;SDS011;18508;49.386;8.370;2023-12-20T00:22:36;10.35;;;5.43;;
31990;SDS011;18508;49.386;8.370;2023-12-20T00:25:05;8.65;;;4.85;;
31990;SDS011;18508;49.386;8.370;2023-12-20T00:27:35;9.18;;;5.13;;
31990;SDS011;18508;49.386;8.370;2023-12-20T00:30:04;9.85;;;5.15;;
31990;SDS011;18508;49.386;8.370;2023-12-20T00:32:33;9.63;;;5.30;;
31990;SDS011;18508;49.386;8.370;2023-12-20T00:35:01;7.57;;;4.30;;
31990;SDS011;18508;49.386;8.370;2023-12-20T00:37:30;8.65;;;4.80;;
31990;SDS011;18508;49.386;8.370;2023-12-20T00:39:58;8.63;;;4.70;;
31990;SDS011;18508;49.386;8.370;2023-12-20T00:42:27;8.52;;;4.35;;
31990;SDS011;18508;49.386;8.370;2023-12-20T00:44:57;7.05;;;3.88;;
31990;SDS011;18508;49.386;8.370;2023-12-20T00:47:25;6.35;;;4.05;;
31990;SDS011;18508;49.386;8.370;2023-12-20T00:49:54;6.15;;;3.53;;
31990;SDS011;18508;49.386;8.370;2023-12-20T00:52:22;6.55;;;3.20;;
31990;SDS011;18508;49.386;8.370;2023-12-20T00:54:51;5.97;;;2.90;;
31990;SDS011;18508;49.386;8.370;2023-12-20T00:57:20;6.03;;;3.05;;
31990;SDS011;18508;49.386;8.370;2023-12-20T00:59:48;6.13;;;2.58;;
31990;SDS011;18508;49.386;8.370;2023-12-20T01:02:18;4.93;;;2.83;;
31990;SDS011;18508;49.386;8.370;2023-12-20T01:04:46;5.28;;;2.72;;
31990;SDS011;18508;49.386;8.370;2023-12-20T01:07:14;6.90;;;2.78;;
31990;SDS011;18508;49.386;8.370;2023-12-20T01:09:43;4.57;;;2.30;;
31990;SDS011;18508;49.386;8.370;2023-12-20T01:12:11;5.20;;;2.53;;
31990;SDS011;18508;49.386;8.370;2023-12-20T01:14:40;5.85;;;2.80;;
31990;SDS011;18508;49.386;8.370;2023-12-20T01:17:08;4.32;;;2.17;;
31990;SDS011;18508;49.386;8.370;2023-12-20T01:19:38;3.85;;;2.30;;
31990;SDS011;18508;49.386;8.370;2023-12-20T01:22:06;5.03;;;2.10;;
31990;SDS011;18508;49.386;8.370;2023-12-20T01:24:35;6.75;;;2.55;;
31990;SDS011;18508;49.386;8.370;2023-12-20T01:27:03;6.90;;;3.17;;
31990;SDS011;18508;49.386;8.370;2023-12-20T01:29:32;5.07;;;2.70;;
31990;SDS011;18508;49.386;8.370;2023-12-20T01:32:00;6.47;;;3.42;;
31990;SDS011;18508;49.386;8.370;2023-12-20T01:34:28;5.90;;;3.38;;
31990;SDS011;18508;49.386;8.370;2023-12-20T01:36:58;6.38;;;2.78;;
31990;SDS011;18508;49.386;8.370;2023-12-20T01:39:26;8.65;;;3.00;;
31990;SDS011;18508;49.386;8.370;2023-12-20T01:41:55;5.25;;;2.65;;
31990;SDS011;18508;49.386;8.370;2023-12-20T01:44:23;6.15;;;2.78;;
31990;SDS011;18508;49.386;8.370;2023-12-20T01:46:53;4.38;;;2.13;;
31990;SDS011;18508;49.386;8.370;2023-12-20T01:49:21;5.07;;;2.55;;
31990;SDS011;18508;49.386;8.370;2023-12-20T01:51:50;5.72;;;2.70;;
31990;SDS011;18508;49.386;8.370;2023-12-20T01:54:20;6.60;;;2.55;;
31990;SDS011;18508;49.386;8.370;2023-12-20T01:56:49;5.13;;;2.42;;
31990;SDS011;18508;49.386;8.370;2023-12-20T01:59:18;5.78;;;2.10;;
31990;SDS011;18508;49.386;8.370;2023-12-20T02:01:48;4.35;;;2.10;;
31990;SDS011;18508;49.386;8.370;2023-12-20T02:04:16;4.40;;;2.40;;
31990;SDS011;18508;49.386;8.370;2023-12-20T02:06:45;7.95;;;2.65;;
31990;SDS011;18508;49.386;8.370;2023-12-20T02:09:14;5.55;;;2.90;;
31990;SDS011;18508;49.386;8.370;2023-12-20T02:11:45;4.97;;;2.50;;
31990;SDS011;18508;49.386;8.370;2023-12-20T02:14:13;4.72;;;2.63;;
31990;SDS011;18508;49.386;8.370;2023-12-20T02:16:41;6.30;;;3.28;;
31990;SDS011;18508;49.386;8.370;2023-12-20T02:19:12;4.82;;;2.97;;
31990;SDS011;18508;49.386;8.370;2023-12-20T02:21:43;10.43;;;4.13;;
31990;SDS011;18508;49.386;8.370;2023-12-20T02:24:11;9.30;;;4.20;;
31990;SDS011;18508;49.386;8.370;2023-12-20T02:26:40;8.05;;;4.28;;
31990;SDS011;18508;49.386;8.370;2023-12-20T02:29:12;10.37;;;5.20;;
31990;SDS011;18508;49.386;8.370;2023-12-20T02:31:41;10.70;;;5.30;;
31990;SDS011;18508;49.386;8.370;2023-12-20T02:34:09;8.10;;;4.80;;
31990;SDS011;18508;49.386;8.370;2023-12-20T02:36:38;4.35;;;2.20;;
31990;SDS011;18508;49.386;8.370;2023-12-20T02:39:08;4.97;;;2.30;;
31990;SDS011;18508;49.386;8.370;2023-12-20T02:41:36;2.40;;;1.17;;
31990;SDS011;18508;49.386;8.370;2023-12-20T02:44:05;1.58;;;0.70;;
31990;SDS011;18508;49.386;8.370;2023-12-20T02:46:33;1.20;;;0.60;;
31990;SDS011;18508;49.386;8.370;2023-12-20T02:49:01;0.90;;;0.60;;
31990;SDS011;18508;49.386;8.370;2023-12-20T02:51:30;2.03;;;0.90;;
31990;SDS011;18508;49.386;8.370;2023-12-20T02:53:58;3.55;;;1.00;;
31990;SDS011;18508;49.386;8.370;2023-12-20T02:56:28;2.63;;;1.20;;
31990;SDS011;18508;49.386;8.370;2023-12-20T02:58:56;2.53;;;1.10;;
31990;SDS011;18508;49.386;8.370;2023-12-20T03:01:24;1.95;;;1.15;;
31990;SDS011;18508;49.386;8.370;2023-12-20T03:03:53;4.63;;;2.65;;
31990;SDS011;18508;49.386;8.370;2023-12-20T03:06:21;5.57;;;2.55;;
31990;SDS011;18508;49.386;8.370;2023-12-20T03:08:49;6.80;;;3.60;;
31990;SDS011;18508;49.386;8.370;2023-12-20T03:11:18;8.38;;;4.45;;
31990;SDS011;18508;49.386;8.370;2023-12-20T03:13:47;9.70;;;5.38;;
31990;SDS011;18508;49.386;8.370;2023-12-20T03:16:16;8.93;;;4.55;;
31990;SDS011;18508;49.386;8.370;2023-12-20T03:18:44;8.43;;;4.07;;
31990;SDS011;18508;49.386;8.370;2023-12-20T03:21:13;8.40;;;4.30;;
31990;SDS011;18508;49.386;8.370;2023-12-20T03:23:41;6.57;;;3.40;;
31990;SDS011;18508;49.386;8.370;2023-12-20T03:26:10;8.60;;;3.63;;
31990;SDS011;18508;49.386;8.370;2023-12-20T03:28:38;7.78;;;3.22;;
31990;SDS011;18508;49.386;8.370;2023-12-20T03:31:08;6.00;;;3.15;;
31990;SDS011;18508;49.386;8.370;2023-12-20T03:33:38;6.82;;;3.30;;
31990;SDS011;18508;49.386;8.370;2023-12-20T03:36:07;6.05;;;3.10;;
31990;SDS011;18508;49.386;8.370;2023-12-20T03:38:35;5.53;;;2.80;;
31990;SDS011;18508;49.386;8.370;2023-12-20T03:41:04;6.95;;;3.20;;
31990;SDS011;18508;49.386;8.370;2023-12-20T03:43:32;6.80;;;3.42;;
31990;SDS011;18508;49.386;8.370;2023-12-20T03:46:00;7.60;;;3.15;;
31990;SDS011;18508;49.386;8.370;2023-12-20T03:48:33;5.45;;;2.75;;
31990;SDS011;18508;49.386;8.370;2023-12-20T03:51:02;4.75;;;2.28;;
31990;SDS011;18508;49.386;8.370;2023-12-20T03:53:31;6.82;;;2.20;;
31990;SDS011;18508;49.386;8.370;2023-12-20T03:55:59;3.85;;;2.10;;
31990;SDS011;18508;49.386;8.370;2023-12-20T03:58:28;3.92;;;1.80;;
31990;SDS011;18508;49.386;8.370;2023-12-20T04:00:56;4.65;;;2.15;;
31990;SDS011;18508;49.386;8.370;2023-12-20T04:03:24;4.35;;;1.90;;
31990;SDS011;18508;49.386;8.370;2023-12-20T04:05:54;4.47;;;2.45;;
31990;SDS011;18508;49.386;8.370;2023-12-20T04:08:23;3.97;;;2.33;;
31990;SDS011;18508;49.386;8.370;2023-12-20T04:10:51;3.65;;;1.95;;
31990;SDS011;18508;49.386;8.370;2023-12-20T04:13:19;2.55;;;1.48;;
31990;SDS011;18508;49.386;8.370;2023-12-20T04:15:48;3.33;;;1.90;;
31990;SDS011;18508;49.386;8.370;2023-12-20T04:18:18;2.95;;;1.50;;
31990;SDS011;18508;49.386;8.370;2023-12-20T04:20:46;3.90;;;1.95;;
31990;SDS011;18508;49.386;8.370;2023-12-20T04:23:17;3.75;;;1.85;;
31990;SDS011;18508;49.386;8.370;2023-12-20T04:25:46;2.78;;;1.50;;
31990;SDS011;18508;49.386;8.370;2023-12-20T04:28:14;2.80;;;1.52;;
31990;SDS011;18508;49.386;8.370;2023-12-20T04:30:45;3.15;;;1.60;;
31990;SDS011;18508;49.386;8.370;2023-12-20T04:33:13;3.20;;;1.60;;
31990;SDS011;18508;49.386;8.370;2023-12-20T04:35:43;4.97;;;1.80;;
31990;SDS011;18508;49.386;8.370;2023-12-20T04:38:12;3.08;;;1.60;;
31990;SDS011;18508;49.386;8.370;2023-12-20T04:40:42;3.50;;;1.90;;
31990;SDS011;18508;49.386;8.370;2023-12-20T04:43:10;3.47;;;1.88;;
31990;SDS011;18508;49.386;8.370;2023-12-20T04:45:39;4.13;;;1.88;;
31990;SDS011;18508;49.386;8.370;2023-12-20T04:48:07;2.60;;;1.45;;
31990;SDS011;18508;49.386;8.370;2023-12-20T04:50:37;4.40;;;1.80;;
31990;SDS011;18508;49.386;8.370;2023-12-20T04:53:05;4.32;;;2.45;;
31990;SDS011;18508;49.386;8.370;2023-12-20T04:55:34;3.80;;;2.20;;
31990;SDS011;18508;49.386;8.370;2023-12-20T04:58:04;4.13;;;2.28;;
31990;SDS011;18508;49.386;8.370;2023-12-20T05:00:32;5.07;;;2.55;;
31990;SDS011;18508;49.386;8.370;2023-12-20T05:03:01;4.80;;;2.58;;
31990;SDS011;18508;49.386;8.370;2023-12-20T05:05:29;4.20;;;2.42;;
31990;SDS011;18508;49.386;8.370;2023-12-20T05:07:58;3.50;;;2.17;;
31990;SDS011;18508;49.386;8.370;2023-12-20T05:10:27;4.60;;;2.72;;
31990;SDS011;18508;49.386;8.370;2023-12-20T05:12:56;4.10;;;2.38;;
31990;SDS011;18508;49.386;8.370;2023-12-20T05:15:26;4.28;;;2.30;;
31990;SDS011;18508;49.386;8.370;2023-12-20T05:17:54;3.83;;;2.33;;
31990;SDS011;18508;49.386;8.370;2023-12-20T05:20:22;4.13;;;2.38;;
31990;SDS011;18508;49.386;8.370;2023-12-20T05:22:51;4.22;;;2.42;;
31990;SDS011;18508;49.386;8.370;2023-12-20T05:25:19;6.03;;;3.28;;
31990;SDS011;18508;49.386;8.370;2023-12-20T05:27:48;5.80;;;2.88;;
31990;SDS011;18508;49.386;8.370;2023-12-20T05:30:16;5.60;;;2.45;;
31990;SDS011;18508;49.386;8.370;2023-12-20T05:32:46;4.88;;;2.58;;
31990;SDS011;18508;49.386;8.370;2023-12-20T05:35:15;5.43;;;2.80;;
31990;SDS011;18508;49.386;8.370;2023-12-20T05:37:43;5.57;;;3.22;;
31990;SDS011;18508;49.386;8.370;2023-12-20T05:40:12;6.15;;;3.70;;
31990;SDS011;18508;49.386;8.370;2023-12-20T05:42:40;6.40;;;3.55;;
31990;SDS011;18508;49.386;8.370;2023-12-20T05:45:09;6.00;;;3.30;;
31990;SDS011;18508;49.386;8.370;2023-12-20T05:47:38;5.18;;;2.80;;
31990;SDS011;18508;49.386;8.370;2023-12-20T05:50:08;5.03;;;2.67;;
31990;SDS011;18508;49.386;8.370;2023-12-20T05:52:36;4.55;;;2.38;;
31990;SDS011;18508;49.386;8.370;2023-12-20T05:55:05;5.25;;;2.58;;
31990;SDS011;18508;49.386;8.370;2023-12-20T05:57:34;5.18;;;3.00;;
31990;SDS011;18508;49.386;8.370;2023-12-20T06:00:03;5.20;;;2.50;;
31990;SDS011;18508;49.386;8.370;2023-12-20T06:02:32;4.65;;;2.63;;
31990;SDS011;18508;49.386;8.370;2023-12-20T06:05:04;5.32;;;2.83;;
31990;SDS011;18508;49.386;8.370;2023-12-20T06:07:33;5.72;;;2.90;;
31990;SDS011;18508;49.386;8.370;2023-12-20T06:10:02;6.63;;;3.20;;
31990;SDS011;18508;49.386;8.370;2023-12-20T06:12:30;4.85;;;2.67;;
31990;SDS011;18508;49.386;8.370;2023-12-20T06:14:59;5.18;;;2.67;;
31990;SDS011;18508;49.386;8.370;2023-12-20T06:17:27;6.38;;;3.30;;
31990;SDS011;18508;49.386;8.370;2023-12-20T06:19:57;6.25;;;3.75;;
31990;SDS011;18508;49.386;8.370;2023-12-20T06:22:25;5.57;;;3.03;;
31990;SDS011;18508;49.386;8.370;2023-12-20T06:24:55;5.88;;;3.60;;
31990;SDS011;18508;49.386;8.370;2023-12-20T06:27:24;6.78;;;3.22;;
31990;SDS011;18508;49.386;8.370;2023-12-20T06:29:53;6.80;;;3.78;;
31990;SDS011;18508;49.386;8.370;2023-12-20T06:32:21;5.93;;;3.50;;
31990;SDS011;18508;49.386;8.370;2023-12-20T06:34:50;9.77;;;5.38;;
31990;SDS011;18508;49.386;8.370;2023-12-20T06:37:19;16.73;;;8.15;;
31990;SDS011;18508;49.386;8.370;2023-12-20T06:39:48;12.13;;;5.97;;
31990;SDS011;18508;49.386;8.370;2023-12-20T06:42:18;13.82;;;8.35;;
31990;SDS011;18508;49.386;8.370;2023-12-20T06:44:46;9.30;;;5.53;;
31990;SDS011;18508;49.386;8.370;2023-12-20T06:47:14;10.38;;;6.10;;
31990;SDS011;18508;49.386;8.370;2023-12-20T06:49:43;8.05;;;4.93;;
31990;SDS011;18508;49.386;8.370;2023-12-20T06:52:11;7.45;;;4.35;;
31990;SDS011;18508;49.386;8.370;2023-12-20T06:54:40;7.80;;;4.20;;
31990;SDS011;18508;49.386;8.370;2023-12-20T06:57:08;9.50;;;3.33;;
31990;SDS011;18508;49.386;8.370;2023-12-20T06:59:39;7.13;;;3.40;;
31990;SDS011;18508;49.386;8.370;2023-12-20T07:02:08;7.35;;;3.70;;
31990;SDS011;18508;49.386;8.370;2023-12-20T07:04:41;9.43;;;3.58;;
31990;SDS011;18508;49.386;8.370;2023-12-20T07:07:09;6.60;;;3.47;;
31990;SDS011;18508;49.386;8.370;2023-12-20T07:09:37;8.05;;;4.00;;
31990;SDS011;18508;49.386;8.370;2023-12-20T07:12:07;6.05;;;3.30;;
31990;SDS011;18508;49.386;8.370;2023-12-20T07:14:36;7.03;;;4.43;;
31990;SDS011;18508;49.386;8.370;2023-12-20T07:17:06;10.02;;;4.72;;
31990;SDS011;18508;49.386;8.370;2023-12-20T07:19:37;7.68;;;5.07;;
31990;SDS011;18508;49.386;8.370;2023-12-20T07:22:06;8.98;;;5.10;;
31990;SDS011;18508;49.386;8.370;2023-12-20T07:24:35;14.90;;;7.45;;
31990;SDS011;18508;49.386;8.370;2023-12-20T07:27:04;12.68;;;6.72;;
31990;SDS011;18508;49.386;8.370;2023-12-20T07:29:32;15.75;;;7.93;;
31990;SDS011;18508;49.386;8.370;2023-12-20T07:32:02;19.08;;;8.98;;
31990;SDS011;18508;49.386;8.370;2023-12-20T07:34:31;12.50;;;6.75;;
31990;SDS011;18508;49.386;8.370;2023-12-20T07:37:03;9.70;;;5.93;;
31990;SDS011;18508;49.386;8.370;2023-12-20T07:39:31;13.40;;;6.60;;
31990;SDS011;18508;49.386;8.370;2023-12-20T07:42:00;11.98;;;6.55;;
31990;SDS011;18508;49.386;8.370;2023-12-20T07:44:28;13.27;;;6.75;;
31990;SDS011;18508;49.386;8.370;2023-12-20T07:46:56;10.93;;;5.85;;
31990;SDS011;18508;49.386;8.370;2023-12-20T07:49:25;14.05;;;6.22;;
31990;SDS011;18508;49.386;8.370;2023-12-20T07:51:55;9.43;;;5.60;;
31990;SDS011;18508;49.386;8.370;2023-12-20T07:54:23;10.88;;;5.25;;
31990;SDS011;18508;49.386;8.370;2023-12-20T07:56:51;13.15;;;5.88;;
31990;SDS011;18508;49.386;8.370;2023-12-20T07:59:19;8.80;;;4.97;;
31990;SDS011;18508;49.386;8.370;2023-12-20T08:01:58;12.20;;;5.47;;
31990;SDS011;18508;49.386;8.370;2023-12-20T08:04:26;11.73;;;5.35;;
31990;SDS011;18508;49.386;8.370;2023-12-20T08:06:56;17.60;;;6.00;;
31990;SDS011;18508;49.386;8.370;2023-12-20T08:09:24;11.35;;;4.93;;
31990;SDS011;18508;49.386;8.370;2023-12-20T08:11:53;9.18;;;4.55;;
31990;SDS011;18508;49.386;8.370;2023-12-20T08:14:21;11.05;;;3.70;;
31990;SDS011;18508;49.386;8.370;2023-12-20T08:16:50;6.40;;;3.40;;
31990;SDS011;18508;49.386;8.370;2023-12-20T08:19:18;5.70;;;2.55;;
31990;SDS011;18508;49.386;8.370;2023-12-20T08:21:47;7.40;;;3.00;;
31990;SDS011;18508;49.386;8.370;2023-12-20T08:24:17;5.65;;;2.83;;
31990;SDS011;18508;49.386;8.370;2023-12-20T08:26:45;4.00;;;2.35;;
31990;SDS011;18508;49.386;8.370;2023-12-20T08:29:13;6.78;;;2.35;;
31990;SDS011;18508;49.386;8.370;2023-12-20T08:31:42;7.35;;;2.50;;
31990;SDS011;18508;49.386;8.370;2023-12-20T08:34:11;4.85;;;2.00;;
31990;SDS011;18508;49.386;8.370;2023-12-20T08:36:41;7.10;;;2.20;;
31990;SDS011;18508;49.386;8.370;2023-12-20T08:39:09;4.60;;;2.20;;
31990;SDS011;18508;49.386;8.370;2023-12-20T08:41:39;4.95;;;1.88;;
31990;SDS011;18508;49.386;8.370;2023-12-20T08:44:07;5.85;;;2.15;;
31990;SDS011;18508;49.386;8.370;2023-12-20T08:46:35;7.25;;;2.10;;
31990;SDS011;18508;49.386;8.370;2023-12-20T08:49:04;7.43;;;2.13;;
31990;SDS011;18508;49.386;8.370;2023-12-20T08:51:35;7.90;;;2.33;;
31990;SDS011;18508;49.386;8.370;2023-12-20T08:54:07;8.13;;;2.75;;
31990;SDS011;18508;49.386;8.370;2023-12-20T08:56:35;6.00;;;2.30;;
31990;SDS011;18508;49.386;8.370;2023-12-20T08:59:05;10.43;;;2.55;;
31990;SDS011;18508;49.386;8.370;2023-12-20T09:01:33;6.78;;;2.97;;
31990;SDS011;18508;49.386;8.370;2023-12-20T09:04:02;7.32;;;2.83;;
31990;SDS011;18508;49.386;8.370;2023-12-20T09:06:30;5.53;;;2.20;;
31990;SDS011;18508;49.386;8.370;2023-12-20T09:08:59;13.65;;;3.10;;
31990;SDS011;18508;49.386;8.370;2023-12-20T09:11:27;9.10;;;2.83;;
31990;SDS011;18508;49.386;8.370;2023-12-20T09:13:56;6.95;;;2.63;;
31990;SDS011;18508;49.386;8.370;2023-12-20T09:16:26;5.68;;;2.78;;
31990;SDS011;18508;49.386;8.370;2023-12-20T09:18:56;6.28;;;2.60;;
31990;SDS011;18508;49.386;8.370;2023-12-20T09:21:24;6.63;;;3.10;;
31990;SDS011;18508;49.386;8.370;2023-12-20T09:23:53;8.57;;;2.65;;
31990;SDS011;18508;49.386;8.370;2023-12-20T09:26:21;5.50;;;2.60;;
31990;SDS011;18508;49.386;8.370;2023-12-20T09:28:50;8.52;;;2.17;;
31990;SDS011;18508;49.386;8.370;2023-12-20T09:31:18;8.90;;;2.50;;
31990;SDS011;18508;49.386;8.370;2023-12-20T09:33:48;7.18;;;2.40;;
31990;SDS011;18508;49.386;8.370;2023-12-20T09:36:16;10.15;;;2.60;;
31990;SDS011;18508;49.386;8.370;2023-12-20T09:38:45;6.32;;;2.70;;
31990;SDS011;18508;49.386;8.370;2023-12-20T09:41:13;8.20;;;2.20;;
31990;SDS011;18508;49.386;8.370;2023-12-20T09:43:42;5.05;;;1.98;;
31990;SDS011;18508;49.386;8.370;2023-12-20T09:46:11;4.68;;;1.85;;
31990;SDS011;18508;49.386;8.370;2023-12-20T09:48:43;5.57;;;2.10;;
31990;SDS011;18508;49.386;8.370;2023-12-20T09:51:14;7.95;;;2.55;;
31990;SDS011;18508;49.386;8.370;2023-12-20T09:53:42;5.38;;;2.78;;
31990;SDS011;18508;49.386;8.370;2023-12-20T09:56:11;9.23;;;2.25;;
31990;SDS011;18508;49.386;8.370;2023-12-20T09:58:40;7.50;;;1.98;;
31990;SDS011;18508;49.386;8.370;2023-12-20T10:01:08;5.13;;;1.85;;
31990;SDS011;18508;49.386;8.370;2023-12-20T10:03:37;9.20;;;2.70;;
31990;SDS011;18508;49.386;8.370;2023-12-20T10:06:08;6.88;;;2.65;;
31990;SDS011;18508;49.386;8.370;2023-12-20T10:08:39;3.63;;;1.67;;
31990;SDS011;18508;49.386;8.370;2023-12-20T10:11:07;6.47;;;2.22;;
31990;SDS011;18508;49.386;8.370;2023-12-20T10:13:39;7.78;;;2.13;;
31990;SDS011;18508;49.386;8.370;2023-12-20T10:16:09;7.38;;;1.80;;
31990;SDS011;18508;49.386;8.370;2023-12-20T10:18:37;4.95;;;1.70;;
31990;SDS011;18508;49.386;8.370;2023-12-20T10:21:06;7.10;;;2.10;;
31990;SDS011;18508;49.386;8.370;2023-12-20T10:23:36;10.55;;;2.28;;
31990;SDS011;18508;49.386;8.370;2023-12-20T10:26:09;9.30;;;2.65;;
31990;SDS011;18508;49.386;8.370;2023-12-20T10:28:38;12.57;;;2.67;;
31990;SDS011;18508;49.386;8.370;2023-12-20T10:31:07;7.82;;;3.42;;
31990;SDS011;18508;49.386;8.370;2023-12-20T10:33:36;6.38;;;1.95;;
31990;SDS011;18508;49.386;8.370;2023-12-20T10:36:07;5.38;;;1.80;;
31990;SDS011;18508;49.386;8.370;2023-12-20T10:38:37;7.18;;;2.20;;
31990;SDS011;18508;49.386;8.370;2023-12-20T10:41:09;6.03;;;2.33;;
31990;SDS011;18508;49.386;8.370;2023-12-20T10:43:38;7.57;;;2.25;;
31990;SDS011;18508;49.386;8.370;2023-12-20T10:46:08;6.47;;;2.13;;
31990;SDS011;18508;49.386;8.370;2023-12-20T10:48:37;7.90;;;2.17;;
31990;SDS011;18508;49.386;8.370;2023-12-20T10:51:07;6.30;;;2.40;;
31990;SDS011;18508;49.386;8.370;2023-12-20T10:53:36;8.63;;;3.58;;
31990;SDS011;18508;49.386;8.370;2023-12-20T10:56:06;12.20;;;3.72;;
31990;SDS011;18508;49.386;8.370;2023-12-20T10:58:40;5.30;;;2.22;;
31990;SDS011;18508;49.386;8.370;2023-12-20T11:01:09;12.07;;;2.70;;
31990;SDS011;18508;49.386;8.370;2023-12-20T11:03:43;6.80;;;2.85;;
31990;SDS011;18508;49.386;8.370;2023-12-20T11:06:22;8.50;;;2.65;;
31990;SDS011;18508;49.386;8.370;2023-12-20T11:08:58;8.52;;;2.17;;
31990;SDS011;18508;49.386;8.370;2023-12-20T11:11:39;12.98;;;2.50;;
31990;SDS011;18508;49.386;8.370;2023-12-20T11:14:19;5.78;;;2.00;;
31990;SDS011;18508;49.386;8.370;2023-12-20T11:16:51;8.27;;;3.20;;
31990;SDS011;18508;49.386;8.370;2023-12-20T11:19:35;9.18;;;2.35;;
31990;SDS011;18508;49.386;8.370;2023-12-20T11:22:04;8.68;;;3.00;;
31990;SDS011;18508;49.386;8.370;2023-12-20T11:24:33;8.77;;;2.45;;
31990;SDS011;18508;49.386;8.370;2023-12-20T11:27:05;8.18;;;2.15;;
31990;SDS011;18508;49.386;8.370;2023-12-20T11:29:34;6.13;;;2.10;;
31990;SDS011;18508;49.386;8.370;2023-12-20T11:32:03;5.90;;;2.70;;
31990;SDS011;18508;49.386;8.370;2023-12-20T11:34:56;6.72;;;2.65;;
31990;SDS011;18508;49.386;8.370;2023-12-20T11:37:29;9.55;;;2.50;;
31990;SDS011;18508;49.386;8.370;2023-12-20T11:40:00;5.68;;;2.40;;
31990;SDS011;18508;49.386;8.370;2023-12-20T11:42:33;6.40;;;2.40;;
31990;SDS011;18508;49.386;8.370;2023-12-20T11:45:08;4.32;;;2.20;;
31990;SDS011;18508;49.386;8.370;2023-12-20T11:47:37;7.82;;;2.45;;
31990;SDS011;18508;49.386;8.370;2023-12-20T11:50:06;6.93;;;2.25;;
31990;SDS011;18508;49.386;8.370;2023-12-20T11:52:35;8.30;;;2.80;;
31990;SDS011;18508;49.386;8.370;2023-12-20T11:55:04;6.63;;;2.63;;
31990;SDS011;18508;49.386;8.370;2023-12-20T11:57:35;8.80;;;3.00;;
31990;SDS011;18508;49.386;8.370;2023-12-20T12:00:05;6.70;;;2.80;;
31990;SDS011;18508;49.386;8.370;2023-12-20T12:02:34;6.63;;;2.85;;
31990;SDS011;18508;49.386;8.370;2023-12-20T12:05:03;8.10;;;2.83;;
31990;SDS011;18508;49.386;8.370;2023-12-20T12:07:33;7.90;;;2.20;;
31990;SDS011;18508;49.386;8.370;2023-12-20T12:10:01;11.63;;;3.63;;
31990;SDS011;18508;49.386;8.370;2023-12-20T12:12:39;11.20;;;4.22;;
31990;SDS011;18508;49.386;8.370;2023-12-20T12:15:08;11.32;;;3.20;;
31990;SDS011;18508;49.386;8.370;2023-12-20T12:17:36;11.95;;;3.70;;
31990;SDS011;18508;49.386;8.370;2023-12-20T12:20:06;17.58;;;6.25;;
31990;SDS011;18508;49.386;8.370;2023-12-20T12:22:37;15.52;;;6.70;;
31990;SDS011;18508;49.386;8.370;2023-12-20T12:25:09;11.57;;;5.22;;
31990;SDS011;18508;49.386;8.370;2023-12-20T12:30:09;11.68;;;5.38;;
31990;SDS011;18508;49.386;8.370;2023-12-20T12:32:39;7.35;;;3.63;;
31990;SDS011;18508;49.386;8.370;2023-12-20T12:35:10;21.75;;;5.30;;
31990;SDS011;18508;49.386;8.370;2023-12-20T12:37:38;9.50;;;3.80;;
31990;SDS011;18508;49.386;8.370;2023-12-20T12:40:11;6.93;;;3.25;;
31990;SDS011;18508;49.386;8.370;2023-12-20T12:42:42;9.98;;;3.85;;
31990;SDS011;18508;49.386;8.370;2023-12-20T12:45:12;9.10;;;3.40;;
31990;SDS011;18508;49.386;8.370;2023-12-20T12:47:42;9.63;;;3.85;;
31990;SDS011;18508;49.386;8.370;2023-12-20T12:50:10;6.88;;;3.35;;
31990;SDS011;18508;49.386;8.370;2023-12-20T12:52:39;6.85;;;3.15;;
31990;SDS011;18508;49.386;8.370;2023-12-20T12:55:09;10.55;;;4.07;;
31990;SDS011;18508;49.386;8.370;2023-12-20T12:57:37;9.10;;;2.50;;
31990;SDS011;18508;49.386;8.370;2023-12-20T13:00:08;7.40;;;3.63;;
31990;SDS011;18508;49.386;8.370;2023-12-20T13:02:37;9.93;;;3.28;;
31990;SDS011;18508;49.386;8.370;2023-12-20T13:05:08;6.90;;;2.50;;
31990;SDS011;18508;49.386;8.370;2023-12-20T13:07:37;8.02;;;2.97;;
31990;SDS011;18508;49.386;8.370;2023-12-20T13:10:06;10.57;;;3.10;;
31990;SDS011;18508;49.386;8.370;2023-12-20T13:12:34;15.23;;;2.88;;
31990;SDS011;18508;49.386;8.370;2023-12-20T13:15:03;10.73;;;2.75;;
31990;SDS011;18508;49.386;8.370;2023-12-20T13:17:33;6.60;;;2.60;;
31990;SDS011;18508;49.386;8.370;2023-12-20T13:20:01;7.50;;;2.40;;
31990;SDS011;18508;49.386;8.370;2023-12-20T13:22:31;7.38;;;2.50;;
31990;SDS011;18508;49.386;8.370;2023-12-20T13:24:59;10.25;;;2.63;;
31990;SDS011;18508;49.386;8.370;2023-12-20T13:27:29;5.90;;;2.55;;
31990;SDS011;18508;49.386;8.370;2023-12-20T13:29:58;7.65;;;2.63;;
31990;SDS011;18508;49.386;8.370;2023-12-20T13:32:27;7.82;;;2.63;;
31990;SDS011;18508;49.386;8.370;2023-12-20T13:34:57;6.75;;;2.50;;
31990;SDS011;18508;49.386;8.370;2023-12-20T13:37:26;8.05;;;2.53;;
31990;SDS011;18508;49.386;8.370;2023-12-20T13:39:54;8.95;;;3.38;;
31990;SDS011;18508;49.386;8.370;2023-12-20T13:42:23;5.70;;;2.47;;
31990;SDS011;18508;49.386;8.370;2023-12-20T13:44:53;10.18;;;3.03;;
31990;SDS011;18508;49.386;8.370;2023-12-20T13:47:22;8.52;;;3.05;;
31990;SDS011;18508;49.386;8.370;2023-12-20T13:49:50;7.50;;;2.97;;
31990;SDS011;18508;49.386;8.370;2023-12-20T13:52:23;12.40;;;2.92;;
31990;SDS011;18508;49.386;8.370;2023-12-20T13:54:52;10.00;;;4.38;;
31990;SDS011;18508;49.386;8.370;2023-12-20T13:57:20;7.85;;;2.83;;
31990;SDS011;18508;49.386;8.370;2023-12-20T14:00:10;10.93;;;3.70;;
31990;SDS011;18508;49.386;8.370;2023-12-20T14:02:41;11.57;;;3.35;;
31990;SDS011;18508;49.386;8.370;2023-12-20T14:05:12;11.55;;;2.65;;
31990;SDS011;18508;49.386;8.370;2023-12-20T14:07:45;9.05;;;3.00;;
31990;SDS011;18508;49.386;8.370;2023-12-20T14:10:15;5.78;;;2.67;;
31990;SDS011;18508;49.386;8.370;2023-12-20T14:12:45;9.00;;;4.00;;
31990;SDS011;18508;49.386;8.370;2023-12-20T14:15:14;12.63;;;2.50;;
31990;SDS011;18508;49.386;8.370;2023-12-20T14:17:42;8.07;;;3.05;;
31990;SDS011;18508;49.386;8.370;2023-12-20T14:20:11;7.38;;;2.38;;
31990;SDS011;18508;49.386;8.370;2023-12-20T14:22:41;7.30;;;2.55;;
31990;SDS011;18508;49.386;8.370;2023-12-20T14:25:13;7.03;;;3.03;;
31990;SDS011;18508;49.386;8.370;2023-12-20T14:27:43;6.55;;;3.80;;
31990;SDS011;18508;49.386;8.370;2023-12-20T14:30:12;6.10;;;2.72;;
31990;SDS011;18508;49.386;8.370;2023-12-20T14:32:44;12.52;;;2.60;;
31990;SDS011;18508;49.386;8.370;2023-12-20T14:35:14;7.80;;;2.38;;
31990;SDS011;18508;49.386;8.370;2023-12-20T14:37:43;6.25;;;2.25;;
31990;SDS011;18508;49.386;8.370;2023-12-20T14:40:13;6.85;;;2.22;;
31990;SDS011;18508;49.386;8.370;2023-12-20T14:42:47;8.00;;;2.20;;
31990;SDS011;18508;49.386;8.370;2023-12-20T14:45:15;10.65;;;2.75;;
31990;SDS011;18508;49.386;8.370;2023-12-20T14:47:44;8.27;;;2.42;;
31990;SDS011;18508;49.386;8.370;2023-12-20T14:50:15;6.45;;;2.28;;
31990;SDS011;18508;49.386;8.370;2023-12-20T14:52:45;13.90;;;5.10;;
31990;SDS011;18508;49.386;8.370;2023-12-20T14:55:16;7.22;;;2.67;;
31990;SDS011;18508;49.386;8.370;2023-12-20T14:57:44;8.38;;;2.17;;
31990;SDS011;18508;49.386;8.370;2023-12-20T15:00:13;6.55;;;2.33;;